Sand Point Airport (SDP/PASD)





Airport Information
Location: Sand Point, Alaska
Coordinates: 55.3137 / -160.521
Field Elevation: 23ft
Longest Runway: 5,220ft
ILS Approaches: NO
Landing Fees: $147 per flight
Jet A Price: $0.36/lbs
Charts:

Current Weather
METAR: PASD 191226Z AUTO 00000KT 10SM FEW007 OVC011 08/07 A2996 RMK AO2 $
TAF: PASD 191137Z 1912/2012 VRB04KT P6SM OVC010 TEMPO 1912/1915 OVC009 FM192100 02008KT P6SM OVC025

Recent Arrivals
Date Flight Type Depart
03/07/2021 GRZ5374 SF34 Cold Bay Airport (PACD)
Recent Departures
Date Flight Type Arrive
03/07/2021 GRZ5375 SF34 Cold Bay Airport (PACD)